createdAt,value
2023-01-06T00:00:16.359Z,75.90
2023-01-06T00:03:09.324Z,75.79
2023-01-06T00:05:41.123Z,75.84
2023-01-06T00:08:13.061Z,75.94
2023-01-06T00:10:44.878Z,75.89
2023-01-06T00:13:16.871Z,76.01
2023-01-06T00:15:48.734Z,76.01
2023-01-06T00:18:20.663Z,76.04
2023-01-06T00:20:52.449Z,76.03
2023-01-06T00:23:24.276Z,75.92
2023-01-06T00:25:56.391Z,75.96
2023-01-06T00:28:28.133Z,75.90
2023-01-06T00:31:00.340Z,75.77
2023-01-06T00:33:32.182Z,75.65
2023-01-06T00:36:04.008Z,75.56
2023-01-06T00:38:36.919Z,75.50
2023-01-06T00:41:26.198Z,75.51
2023-01-06T00:43:58.420Z,75.34
2023-01-06T00:46:31.254Z,75.26
2023-01-06T00:49:05.598Z,75.21
2023-01-06T00:51:40.636Z,75.24
2023-01-06T00:54:14.781Z,75.24
2023-01-06T00:56:48.099Z,75.16
2023-01-06T00:59:21.483Z,75.29
2023-01-06T01:01:55.290Z,75.32
2023-01-06T01:04:29.150Z,75.44
2023-01-06T01:07:01.554Z,75.46
2023-01-06T01:09:34.088Z,75.51
2023-01-06T01:12:12.060Z,75.56
2023-01-06T01:14:48.018Z,75.39
2023-01-06T01:17:22.764Z,75.32
2023-01-06T01:19:55.807Z,75.14
2023-01-06T01:22:30.273Z,75.04
2023-01-06T01:25:02.128Z,75.03
2023-01-06T01:27:33.958Z,74.95
2023-01-06T01:30:07.109Z,75.05
2023-01-06T01:32:38.836Z,75.08
2023-01-06T01:35:12.045Z,75.21
2023-01-06T01:37:43.951Z,75.27
2023-01-06T01:40:16.628Z,75.23
2023-01-06T01:42:48.453Z,75.30
2023-01-06T01:45:26.240Z,75.35
2023-01-06T01:48:03.756Z,75.37
2023-01-06T01:50:41.024Z,75.49
2023-01-06T01:53:16.671Z,75.46
2023-01-06T01:55:49.730Z,75.39
2023-01-06T01:58:26.703Z,75.40
2023-01-06T02:00:58.409Z,75.49
2023-01-06T02:03:30.454Z,75.46
2023-01-06T02:06:11.038Z,75.39
2023-01-06T02:08:47.372Z,75.36
2023-01-06T02:11:19.341Z,75.30
2023-01-06T02:13:55.005Z,75.39
2023-01-06T02:16:38.002Z,75.36
2023-01-06T02:19:22.384Z,75.40
2023-01-06T02:22:23.029Z,75.45
2023-01-06T02:25:10.557Z,75.37
2023-01-06T02:28:31.766Z,75.40
2023-01-06T02:31:30.636Z,75.53
2023-01-06T02:34:14.800Z,75.61
2023-01-06T02:36:54.854Z,75.59
2023-01-06T02:39:42.625Z,75.59
2023-01-06T02:42:26.043Z,75.56
2023-01-06T02:45:07.444Z,75.54
2023-01-06T02:47:47.851Z,75.49
2023-01-06T02:50:26.411Z,75.61
2023-01-06T02:53:07.587Z,75.46
2023-01-06T02:55:44.757Z,75.45
2023-01-06T02:58:26.017Z,75.44
2023-01-06T03:01:02.600Z,75.51
2023-01-06T03:03:38.550Z,75.40
2023-01-06T03:06:15.299Z,75.46
2023-01-06T03:08:49.842Z,75.42
2023-01-06T03:11:21.864Z,75.38
2023-01-06T03:13:59.961Z,75.32
2023-01-06T03:16:31.826Z,75.43
2023-01-06T03:19:03.841Z,75.44
2023-01-06T03:21:41.332Z,75.34
2023-01-06T03:24:14.493Z,75.48
2023-01-06T03:26:49.429Z,75.48
2023-01-06T03:29:22.548Z,75.51
2023-01-06T03:32:02.768Z,75.47
2023-01-06T03:34:52.475Z,75.42
2023-01-06T03:37:33.218Z,75.42
2023-01-06T03:40:17.084Z,75.38
2023-01-06T03:43:08.351Z,75.42
2023-01-06T03:45:50.814Z,75.20
2023-01-06T03:48:32.098Z,75.23
2023-01-06T03:51:12.087Z,75.12
2023-01-06T03:53:48.233Z,75.10
2023-01-06T03:56:26.419Z,75.13
2023-01-06T03:59:02.631Z,75.30
2023-01-06T04:01:35.431Z,75.29
2023-01-06T04:04:07.556Z,75.39
2023-01-06T04:06:39.385Z,75.43
2023-01-06T04:09:11.141Z,75.32
2023-01-06T04:12:00.795Z,75.42
2023-01-06T04:14:32.879Z,75.37
2023-01-06T04:17:04.865Z,75.48
2023-01-06T04:19:36.855Z,75.45
2023-01-06T04:22:08.643Z,75.49
2023-01-06T04:24:40.412Z,75.47
2023-01-06T04:27:12.133Z,75.44
2023-01-06T04:29:43.871Z,75.31
2023-01-06T04:32:15.670Z,75.37
2023-01-06T04:34:47.413Z,75.29
2023-01-06T04:37:20.681Z,75.27
2023-01-06T04:39:53.321Z,75.25
2023-01-06T04:42:24.979Z,75.33
2023-01-06T04:44:56.676Z,75.32
2023-01-06T04:47:28.590Z,75.31
2023-01-06T04:50:00.556Z,75.31
2023-01-06T04:52:32.293Z,75.33
2023-01-06T04:55:04.181Z,75.28
2023-01-06T04:57:35.868Z,75.20
2023-01-06T05:00:10.071Z,75.26
2023-01-06T05:02:42.222Z,75.23
2023-01-06T05:05:14.882Z,75.19
2023-01-06T05:07:46.631Z,75.22
2023-01-06T05:10:18.590Z,75.26
2023-01-06T05:12:50.420Z,75.25
2023-01-06T05:15:22.108Z,75.31
2023-01-06T05:17:53.837Z,75.24
2023-01-06T05:20:25.651Z,75.27
2023-01-06T05:22:57.646Z,75.25
2023-01-06T05:25:29.752Z,75.18
2023-01-06T05:28:01.538Z,75.13
2023-01-06T05:30:34.340Z,75.11
2023-01-06T05:33:06.271Z,75.14
2023-01-06T05:35:38.026Z,74.97
2023-01-06T05:38:09.745Z,75.16
2023-01-06T05:40:41.515Z,75.10
2023-01-06T05:43:13.451Z,75.03
2023-01-06T05:45:45.405Z,75.16
2023-01-06T05:48:17.155Z,75.13
2023-01-06T05:50:48.887Z,75.22
2023-01-06T05:53:20.889Z,75.07
2023-01-06T05:55:52.677Z,75.03
2023-01-06T05:58:24.517Z,74.95
2023-01-06T06:00:56.471Z,75.06
2023-01-06T06:03:28.553Z,75.08
2023-01-06T06:06:05.593Z,75.00
2023-01-06T06:08:37.573Z,75.09
2023-01-06T06:11:11.516Z,75.07
2023-01-06T06:13:48.247Z,75.00
2023-01-06T06:16:21.867Z,75.09
2023-01-06T06:18:53.228Z,75.18
2023-01-06T06:21:26.988Z,75.07
2023-01-06T06:24:00.939Z,75.17
2023-01-06T06:26:32.705Z,75.15
2023-01-06T06:29:05.880Z,75.31
2023-01-06T06:31:38.345Z,75.29
2023-01-06T06:34:12.102Z,75.31
2023-01-06T06:36:43.896Z,75.37
2023-01-06T06:39:15.727Z,75.45
2023-01-06T06:41:47.572Z,75.53
2023-01-06T06:44:19.251Z,75.62
2023-01-06T06:46:51.127Z,75.58
2023-01-06T06:49:22.902Z,75.64
2023-01-06T06:51:55.592Z,75.74
2023-01-06T06:54:27.522Z,75.87
2023-01-06T06:56:59.309Z,75.97
2023-01-06T06:59:31.088Z,76.05
2023-01-06T07:02:03.020Z,76.04
2023-01-06T07:04:34.868Z,76.09
2023-01-06T07:07:06.598Z,76.04
2023-01-06T07:09:38.486Z,76.03
2023-01-06T07:12:12.609Z,76.12
2023-01-06T07:14:44.441Z,76.18
2023-01-06T07:17:16.597Z,76.11
2023-01-06T07:19:48.456Z,75.99
2023-01-06T07:22:20.151Z,75.99
2023-01-06T07:24:52.061Z,75.89
2023-01-06T07:27:23.809Z,75.81
2023-01-06T07:29:55.584Z,75.74
2023-01-06T07:32:27.726Z,75.79
2023-01-06T07:34:59.485Z,75.82
2023-01-06T07:37:31.296Z,75.82
2023-01-06T07:40:03.175Z,75.98
2023-01-06T07:42:36.028Z,75.84
2023-01-06T07:45:09.623Z,75.84
2023-01-06T07:47:41.378Z,75.97
2023-01-06T07:50:13.253Z,75.92
2023-01-06T07:52:45.012Z,75.92
2023-01-06T07:55:17.151Z,75.79
2023-01-06T07:57:48.923Z,75.67
2023-01-06T08:00:22.319Z,75.73
2023-01-06T08:02:55.447Z,75.76
2023-01-06T08:05:27.392Z,75.73
2023-01-06T08:07:59.550Z,75.61
2023-01-06T08:10:31.445Z,75.60
2023-01-06T08:13:03.180Z,75.41
2023-01-06T08:15:36.015Z,75.33
2023-01-06T08:18:08.674Z,75.34
2023-01-06T08:20:40.716Z,75.37
2023-01-06T08:23:12.421Z,75.47
2023-01-06T08:25:44.167Z,75.18
2023-01-06T08:28:16.092Z,75.29
2023-01-06T08:30:49.008Z,75.41
2023-01-06T08:33:20.789Z,75.38
2023-01-06T08:35:52.702Z,75.33
2023-01-06T08:38:24.457Z,75.32
2023-01-06T08:40:57.379Z,75.40
2023-01-06T08:43:29.729Z,75.55
2023-01-06T08:46:03.876Z,75.50
2023-01-06T08:48:36.925Z,75.17
2023-01-06T08:51:12.386Z,75.34
2023-01-06T08:53:45.030Z,75.30
2023-01-06T08:56:20.100Z,75.01
2023-01-06T08:58:55.262Z,75.11
2023-01-06T09:01:29.632Z,75.19
2023-01-06T09:04:03.797Z,75.19
2023-01-06T09:06:35.937Z,75.10
2023-01-06T09:09:09.318Z,75.06
2023-01-06T09:11:43.383Z,74.75
2023-01-06T09:14:15.653Z,74.73
2023-01-06T09:16:48.673Z,74.82
2023-01-06T09:19:21.162Z,74.90
2023-01-06T09:21:53.886Z,75.25
2023-01-06T09:24:25.686Z,75.21
2023-01-06T09:26:57.476Z,75.03
2023-01-06T09:29:29.424Z,74.88
2023-01-06T09:32:01.243Z,74.70
2023-01-06T09:34:32.917Z,74.50
2023-01-06T09:37:05.053Z,74.61
2023-01-06T09:39:37.701Z,74.45
2023-01-06T09:42:20.807Z,74.17
2023-01-06T09:44:57.520Z,74.32
2023-01-06T09:47:35.306Z,74.04
2023-01-06T09:50:15.168Z,74.23
2023-01-06T09:52:51.899Z,74.22
2023-01-06T09:55:32.361Z,74.05
2023-01-06T09:58:12.695Z,74.06
2023-01-06T10:00:46.708Z,74.27
2023-01-06T10:03:20.613Z,74.24
2023-01-06T10:06:07.285Z,74.04
2023-01-06T10:08:48.759Z,74.36
2023-01-06T10:11:30.874Z,74.37
2023-01-06T10:14:14.985Z,74.32
2023-01-06T10:17:10.961Z,74.14
2023-01-06T10:19:59.683Z,73.96
2023-01-06T10:22:40.771Z,73.83
2023-01-06T10:25:19.644Z,74.05
2023-01-06T10:27:55.059Z,74.24
2023-01-06T10:30:34.001Z,74.35
2023-01-06T10:33:15.648Z,73.72
2023-01-06T10:35:47.594Z,73.60
2023-01-06T10:38:23.203Z,74.02
2023-01-06T10:40:57.217Z,73.77
2023-01-06T10:43:29.426Z,73.90
2023-01-06T10:46:01.371Z,73.76
2023-01-06T10:48:35.449Z,73.59
2023-01-06T10:51:33.779Z,73.82
2023-01-06T10:54:09.654Z,73.14
2023-01-06T10:56:45.109Z,73.73
2023-01-06T10:59:16.923Z,73.71
2023-01-06T11:01:53.976Z,74.12
2023-01-06T11:04:28.147Z,73.40
2023-01-06T11:07:02.400Z,73.05
2023-01-06T11:09:43.149Z,73.19
2023-01-06T11:12:19.971Z,72.99
2023-01-06T11:14:58.649Z,72.63
2023-01-06T11:17:31.177Z,72.65
2023-01-06T11:20:29.581Z,73.02
2023-01-06T11:23:21.479Z,72.65
2023-01-06T11:26:06.346Z,72.15
2023-01-06T11:28:38.373Z,72.46
2023-01-06T11:31:17.444Z,72.24
2023-01-06T11:33:55.318Z,72.13
2023-01-06T11:36:29.380Z,71.85
2023-01-06T11:39:03.569Z,71.58
2023-01-06T11:41:38.767Z,72.03
2023-01-06T11:44:17.186Z,72.16
2023-01-06T11:46:53.334Z,72.50
2023-01-06T11:49:30.457Z,72.62
2023-01-06T11:52:04.407Z,72.30
2023-01-06T11:54:39.188Z,72.34
2023-01-06T11:57:23.460Z,72.02
2023-01-06T12:00:09.431Z,71.79
2023-01-06T12:02:53.223Z,72.12
2023-01-06T12:05:30.746Z,71.87
2023-01-06T12:08:04.378Z,71.91
2023-01-06T12:10:36.771Z,71.50
2023-01-06T12:13:09.503Z,71.74
2023-01-06T12:15:44.264Z,72.02
2023-01-06T12:18:21.079Z,71.60
2023-01-06T12:20:55.499Z,71.59
2023-01-06T12:23:30.789Z,71.47
2023-01-06T12:26:05.959Z,71.95
2023-01-06T12:28:39.465Z,72.06
2023-01-06T12:31:15.470Z,71.72
2023-01-06T12:33:53.424Z,71.89
2023-01-06T12:36:40.375Z,71.98
2023-01-06T12:39:19.205Z,71.96
2023-01-06T12:41:56.108Z,71.97
2023-01-06T12:44:42.403Z,71.92
2023-01-06T12:47:20.229Z,71.76
2023-01-06T12:49:56.546Z,71.85
2023-01-06T12:52:36.003Z,71.93
2023-01-06T12:55:13.904Z,71.99
2023-01-06T12:57:55.300Z,71.82
2023-01-06T13:00:43.073Z,71.98
2023-01-06T13:03:33.090Z,72.01
2023-01-06T13:06:22.494Z,71.88
2023-01-06T13:09:07.411Z,71.96
2023-01-06T13:11:58.731Z,71.88
2023-01-06T13:14:39.234Z,71.97
2023-01-06T13:17:19.974Z,72.14
2023-01-06T13:19:54.184Z,72.19
2023-01-06T13:22:32.948Z,72.00
2023-01-06T13:25:19.860Z,71.82
2023-01-06T13:28:03.438Z,72.05
2023-01-06T13:30:55.936Z,72.20
2023-01-06T13:33:50.122Z,72.12
2023-01-06T13:36:37.773Z,72.22
2023-01-06T13:39:14.603Z,72.21
2023-01-06T13:41:50.471Z,72.17
2023-01-06T13:44:25.984Z,72.30
2023-01-06T13:47:04.092Z,72.22
2023-01-06T13:49:38.257Z,72.26
2023-01-06T13:52:18.145Z,72.26
2023-01-06T13:55:05.347Z,72.41
2023-01-06T13:57:39.968Z,72.28
2023-01-06T14:00:29.524Z,72.38
2023-01-06T14:03:16.461Z,72.37
2023-01-06T14:06:02.765Z,72.51
2023-01-06T14:08:39.023Z,72.48
2023-01-06T14:11:31.650Z,72.41
2023-01-06T14:14:06.268Z,72.60
2023-01-06T14:16:47.035Z,72.58
2023-01-06T14:19:23.990Z,72.60
2023-01-06T14:22:12.913Z,72.65
2023-01-06T14:24:50.843Z,72.47
2023-01-06T14:27:53.698Z,72.52
2023-01-06T14:30:30.558Z,72.56
2023-01-06T14:33:26.808Z,72.51
2023-01-06T14:36:06.060Z,72.57
2023-01-06T14:38:47.700Z,72.53
2023-01-06T14:41:24.449Z,72.68
2023-01-06T14:44:01.333Z,72.71
2023-01-06T14:46:39.450Z,72.72
2023-01-06T14:49:19.834Z,72.78
2023-01-06T14:51:54.985Z,72.72
2023-01-06T14:54:31.029Z,72.82
2023-01-06T14:57:05.840Z,72.83
2023-01-06T14:59:37.736Z,72.91
2023-01-06T15:02:17.494Z,72.80
2023-01-06T15:04:58.103Z,72.83
2023-01-06T15:07:30.475Z,72.80
2023-01-06T15:10:22.305Z,72.95
2023-01-06T15:12:56.946Z,73.04
2023-01-06T15:15:31.199Z,73.14
2023-01-06T15:18:04.484Z,73.07
2023-01-06T15:20:41.615Z,73.05
2023-01-06T15:23:20.085Z,73.17
2023-01-06T15:25:53.623Z,73.22
2023-01-06T15:28:30.520Z,73.41
2023-01-06T15:31:03.533Z,73.50
2023-01-06T15:33:42.648Z,73.39
2023-01-06T15:36:20.448Z,73.62
2023-01-06T15:38:54.201Z,73.55
2023-01-06T15:41:36.941Z,73.55
2023-01-06T15:44:27.084Z,73.56
2023-01-06T15:47:05.308Z,73.55
2023-01-06T15:49:39.825Z,73.78
2023-01-06T15:52:26.368Z,73.77
2023-01-06T15:55:00.877Z,73.76
2023-01-06T15:57:37.935Z,73.65
2023-01-06T16:00:20.400Z,73.70
2023-01-06T16:02:52.536Z,73.68
2023-01-06T16:05:43.469Z,73.71
2023-01-06T16:08:25.666Z,73.76
2023-01-06T16:11:11.764Z,73.67
2023-01-06T16:13:57.547Z,73.68
2023-01-06T16:16:34.655Z,73.65
2023-01-06T16:19:15.466Z,73.61
2023-01-06T16:21:47.727Z,73.80
2023-01-06T16:24:22.777Z,73.69
2023-01-06T16:26:56.584Z,73.64
2023-01-06T16:29:30.551Z,73.77
2023-01-06T16:32:28.037Z,73.76
2023-01-06T16:35:06.047Z,73.80
2023-01-06T16:37:37.831Z,73.88
2023-01-06T16:40:12.910Z,73.80
2023-01-06T16:42:46.002Z,73.82
2023-01-06T16:45:23.465Z,73.89
2023-01-06T16:47:56.013Z,73.97
2023-01-06T16:50:34.212Z,74.03
2023-01-06T16:53:16.165Z,73.97
2023-01-06T16:55:51.785Z,73.80
2023-01-06T16:58:26.368Z,74.01
2023-01-06T17:01:08.375Z,73.95
2023-01-06T17:03:40.775Z,73.99
2023-01-06T17:06:18.969Z,73.93
2023-01-06T17:08:51.988Z,74.02
2023-01-06T17:11:25.982Z,74.11
2023-01-06T17:14:00.214Z,74.19
2023-01-06T17:16:35.221Z,74.28
2023-01-06T17:19:20.574Z,74.46
2023-01-06T17:21:57.229Z,74.74
2023-01-06T17:24:31.818Z,74.82
2023-01-06T17:27:21.361Z,75.04
2023-01-06T17:29:53.890Z,75.24
2023-01-06T17:32:30.911Z,75.52
2023-01-06T17:35:03.357Z,75.57
2023-01-06T17:37:35.763Z,75.58
2023-01-06T17:40:15.431Z,75.74
2023-01-06T17:42:52.159Z,75.72
2023-01-06T17:45:26.656Z,75.80
2023-01-06T17:48:00.159Z,75.80
2023-01-06T17:50:33.941Z,76.00
2023-01-06T17:53:35.416Z,76.11
2023-01-06T17:56:09.677Z,76.03
2023-01-06T17:58:44.050Z,76.01
2023-01-06T18:01:23.597Z,76.07
2023-01-06T18:03:59.522Z,76.12
2023-01-06T18:06:37.479Z,76.12
2023-01-06T18:09:16.233Z,76.16
2023-01-06T18:11:50.515Z,76.23
2023-01-06T18:14:26.245Z,76.18
2023-01-06T18:17:00.690Z,76.43
2023-01-06T18:19:37.469Z,76.36
2023-01-06T18:22:19.788Z,76.54
2023-01-06T18:24:54.190Z,76.58
2023-01-06T18:27:27.749Z,76.80
2023-01-06T18:30:16.303Z,76.72
2023-01-06T18:32:49.811Z,77.06
2023-01-06T18:35:24.952Z,77.07
2023-01-06T18:38:00.375Z,77.30
2023-01-06T18:40:32.543Z,77.37
2023-01-06T18:43:18.088Z,77.40
2023-01-06T18:45:55.378Z,77.48
2023-01-06T18:48:32.836Z,77.54
2023-01-06T18:51:14.945Z,77.59
2023-01-06T18:53:47.879Z,77.53
2023-01-06T18:56:22.693Z,77.55
2023-01-06T18:58:57.444Z,77.56
2023-01-06T19:01:39.417Z,77.51
2023-01-06T19:04:21.283Z,77.65
2023-01-06T19:06:55.373Z,77.74
2023-01-06T19:09:33.711Z,77.72
2023-01-06T19:12:23.522Z,77.77
2023-01-06T19:14:56.237Z,77.75
2023-01-06T19:17:31.546Z,77.78
2023-01-06T19:20:16.821Z,77.91
2023-01-06T19:22:49.310Z,77.98
2023-01-06T19:25:33.978Z,77.88
2023-01-06T19:28:13.995Z,78.17
2023-01-06T19:30:48.880Z,78.01
2023-01-06T19:33:31.404Z,77.98
2023-01-06T19:36:35.019Z,78.09
2023-01-06T19:39:25.328Z,78.16
2023-01-06T19:42:00.393Z,78.07
2023-01-06T19:44:38.670Z,78.19
2023-01-06T19:47:19.776Z,78.23
2023-01-06T19:49:55.777Z,78.18
2023-01-06T19:52:32.498Z,78.10
2023-01-06T19:55:18.613Z,78.13
2023-01-06T19:57:53.592Z,78.29
2023-01-06T20:00:32.500Z,78.16
2023-01-06T20:03:05.328Z,78.23
2023-01-06T20:05:37.540Z,78.36
2023-01-06T20:08:09.608Z,78.30
2023-01-06T20:10:41.443Z,78.35
2023-01-06T20:13:13.297Z,78.51
2023-01-06T20:15:45.169Z,78.42
2023-01-06T20:18:17.248Z,78.50
2023-01-06T20:20:49.078Z,78.53
2023-01-06T20:23:21.117Z,78.64
2023-01-06T20:25:53.268Z,78.63
2023-01-06T20:28:25.313Z,78.67
2023-01-06T20:30:57.280Z,78.69
2023-01-06T20:33:29.011Z,78.91
2023-01-06T20:36:00.757Z,78.98
2023-01-06T20:38:33.515Z,78.97
2023-01-06T20:41:05.372Z,79.03
2023-01-06T20:43:37.288Z,79.04
2023-01-06T20:46:09.439Z,79.10
2023-01-06T20:48:41.690Z,79.12
2023-01-06T20:51:13.599Z,79.18
2023-01-06T20:53:45.581Z,79.26
2023-01-06T20:56:17.453Z,79.24
2023-01-06T20:58:49.170Z,79.28
2023-01-06T21:01:21.056Z,79.24
2023-01-06T21:03:53.089Z,79.24
2023-01-06T21:06:24.975Z,79.29
2023-01-06T21:08:56.785Z,79.41
2023-01-06T21:11:28.542Z,79.51
2023-01-06T21:14:00.604Z,79.54
2023-01-06T21:16:32.631Z,79.49
2023-01-06T21:19:04.806Z,79.47
2023-01-06T21:21:36.652Z,79.60
2023-01-06T21:24:09.128Z,79.54
2023-01-06T21:26:41.004Z,79.69
2023-01-06T21:29:12.949Z,79.79
2023-01-06T21:31:45.039Z,79.79
2023-01-06T21:34:17.097Z,79.73
2023-01-06T21:36:48.923Z,79.70
2023-01-06T21:39:21.365Z,79.76
2023-01-06T21:42:11.055Z,79.78
2023-01-06T21:44:43.011Z,79.83
2023-01-06T21:47:14.851Z,79.74
2023-01-06T21:49:46.578Z,79.92
2023-01-06T21:52:19.092Z,79.88
2023-01-06T21:54:50.917Z,79.93
2023-01-06T21:57:22.886Z,79.92
2023-01-06T21:59:54.587Z,79.95
2023-01-06T22:02:27.383Z,80.01
2023-01-06T22:04:59.344Z,80.01
2023-01-06T22:07:32.224Z,79.99
2023-01-06T22:10:06.097Z,80.01
2023-01-06T22:12:39.848Z,79.96
2023-01-06T22:15:11.140Z,79.96
2023-01-06T22:17:43.031Z,79.82
2023-01-06T22:20:17.582Z,79.90
2023-01-06T22:22:49.860Z,79.82
2023-01-06T22:25:21.713Z,79.89
2023-01-06T22:27:53.431Z,79.90
2023-01-06T22:30:25.350Z,79.97
2023-01-06T22:32:57.481Z,80.00
2023-01-06T22:35:29.778Z,79.94
2023-01-06T22:38:01.552Z,79.94
2023-01-06T22:40:33.363Z,79.95
2023-01-06T22:43:06.556Z,79.94
2023-01-06T22:45:38.234Z,80.10
2023-01-06T22:48:10.019Z,80.18
2023-01-06T22:50:41.798Z,80.10
2023-01-06T22:53:13.561Z,80.01
2023-01-06T22:55:45.319Z,80.10
2023-01-06T22:58:16.962Z,80.12
2023-01-06T23:00:50.193Z,80.14
2023-01-06T23:03:23.270Z,80.10
2023-01-06T23:06:00.201Z,80.14
2023-01-06T23:08:34.083Z,80.14
2023-01-06T23:11:09.467Z,80.31
2023-01-06T23:13:42.587Z,80.32
2023-01-06T23:16:16.760Z,80.32
2023-01-06T23:18:50.304Z,80.29
2023-01-06T23:21:23.979Z,80.33
2023-01-06T23:23:54.978Z,80.18
2023-01-06T23:26:28.971Z,80.36
2023-01-06T23:29:00.768Z,80.07
2023-01-06T23:31:34.580Z,80.11
2023-01-06T23:34:09.531Z,80.14
2023-01-06T23:36:42.092Z,80.15
2023-01-06T23:39:17.170Z,80.19
2023-01-06T23:41:49.384Z,80.30
2023-01-06T23:44:21.925Z,80.33
2023-01-06T23:46:53.790Z,80.31
2023-01-06T23:49:25.646Z,80.27
2023-01-06T23:51:57.487Z,80.29
2023-01-06T23:54:29.717Z,80.24
2023-01-06T23:57:01.588Z,80.29
2023-01-06T23:59:33.224Z,80.22
